sensor_id;sensor_type;location;lat;lon;timestamp;P1;durP1;ratioP1;P2;durP2;ratioP2
46751;SDS011;32497;48.936;9.270;2023-09-08T00:04:20;3.40;;;2.20;;
46751;SDS011;32497;48.936;9.270;2023-09-08T00:09:23;5.15;;;2.45;;
46751;SDS011;32497;48.936;9.270;2023-09-08T00:14:24;6.63;;;2.50;;
46751;SDS011;32497;48.936;9.270;2023-09-08T00:19:25;5.18;;;2.42;;
46751;SDS011;32497;48.936;9.270;2023-09-08T00:24:28;5.32;;;2.42;;
46751;SDS011;32497;48.936;9.270;2023-09-08T00:29:29;6.18;;;2.47;;
46751;SDS011;32497;48.936;9.270;2023-09-08T00:34:30;3.92;;;2.15;;
46751;SDS011;32497;48.936;9.270;2023-09-08T00:39:32;3.75;;;2.25;;
46751;SDS011;32497;48.936;9.270;2023-09-08T00:44:35;5.32;;;2.50;;
46751;SDS011;32497;48.936;9.270;2023-09-08T00:49:36;3.80;;;2.22;;
46751;SDS011;32497;48.936;9.270;2023-09-08T00:54:38;5.32;;;2.15;;
46751;SDS011;32497;48.936;9.270;2023-09-08T00:59:40;4.00;;;2.00;;
46751;SDS011;32497;48.936;9.270;2023-09-08T01:04:41;3.10;;;1.70;;
46751;SDS011;32497;48.936;9.270;2023-09-08T01:09:43;4.93;;;2.08;;
46751;SDS011;32497;48.936;9.270;2023-09-08T01:14:47;4.82;;;2.30;;
46751;SDS011;32497;48.936;9.270;2023-09-08T01:19:48;4.13;;;1.83;;
46751;SDS011;32497;48.936;9.270;2023-09-08T01:25:04;6.90;;;2.20;;
46751;SDS011;32497;48.936;9.270;2023-09-08T01:30:19;5.07;;;2.30;;
46751;SDS011;32497;48.936;9.270;2023-09-08T01:35:21;3.97;;;2.10;;
46751;SDS011;32497;48.936;9.270;2023-09-08T01:40:24;3.70;;;2.10;;
46751;SDS011;32497;48.936;9.270;2023-09-08T01:45:26;4.53;;;2.67;;
46751;SDS011;32497;48.936;9.270;2023-09-08T01:50:27;4.57;;;2.20;;
46751;SDS011;32497;48.936;9.270;2023-09-08T01:55:29;6.13;;;2.50;;
46751;SDS011;32497;48.936;9.270;2023-09-08T02:00:31;5.30;;;2.42;;
46751;SDS011;32497;48.936;9.270;2023-09-08T02:05:32;3.95;;;1.90;;
46751;SDS011;32497;48.936;9.270;2023-09-08T02:10:34;3.63;;;2.05;;
46751;SDS011;32497;48.936;9.270;2023-09-08T02:15:36;4.13;;;2.42;;
46751;SDS011;32497;48.936;9.270;2023-09-08T02:20:37;4.65;;;2.63;;
46751;SDS011;32497;48.936;9.270;2023-09-08T02:25:39;5.20;;;2.05;;
46751;SDS011;32497;48.936;9.270;2023-09-08T02:30:41;4.85;;;2.38;;
46751;SDS011;32497;48.936;9.270;2023-09-08T02:35:42;4.50;;;2.10;;
46751;SDS011;32497;48.936;9.270;2023-09-08T02:40:46;3.72;;;2.15;;
46751;SDS011;32497;48.936;9.270;2023-09-08T02:45:47;4.57;;;2.38;;
46751;SDS011;32497;48.936;9.270;2023-09-08T02:50:49;4.70;;;2.15;;
46751;SDS011;32497;48.936;9.270;2023-09-08T02:55:51;4.47;;;2.40;;
46751;SDS011;32497;48.936;9.270;2023-09-08T03:00:54;5.68;;;2.55;;
46751;SDS011;32497;48.936;9.270;2023-09-08T03:05:56;7.68;;;2.50;;
46751;SDS011;32497;48.936;9.270;2023-09-08T03:10:59;4.03;;;2.35;;
46751;SDS011;32497;48.936;9.270;2023-09-08T03:16:03;4.03;;;2.17;;
46751;SDS011;32497;48.936;9.270;2023-09-08T03:21:05;4.07;;;2.08;;
46751;SDS011;32497;48.936;9.270;2023-09-08T03:26:09;4.93;;;2.20;;
46751;SDS011;32497;48.936;9.270;2023-09-08T03:31:10;5.18;;;2.53;;
46751;SDS011;32497;48.936;9.270;2023-09-08T03:36:12;4.45;;;2.33;;
46751;SDS011;32497;48.936;9.270;2023-09-08T03:41:14;4.60;;;2.60;;
46751;SDS011;32497;48.936;9.270;2023-09-08T03:46:15;4.90;;;2.45;;
46751;SDS011;32497;48.936;9.270;2023-09-08T03:51:17;4.32;;;2.28;;
46751;SDS011;32497;48.936;9.270;2023-09-08T03:56:19;5.80;;;2.67;;
46751;SDS011;32497;48.936;9.270;2023-09-08T04:01:21;5.32;;;2.38;;
46751;SDS011;32497;48.936;9.270;2023-09-08T04:06:22;5.43;;;2.20;;
46751;SDS011;32497;48.936;9.270;2023-09-08T04:11:25;3.92;;;2.35;;
46751;SDS011;32497;48.936;9.270;2023-09-08T04:16:26;5.00;;;2.55;;
46751;SDS011;32497;48.936;9.270;2023-09-08T04:21:27;5.35;;;2.30;;
46751;SDS011;32497;48.936;9.270;2023-09-08T04:26:29;5.13;;;2.70;;
46751;SDS011;32497;48.936;9.270;2023-09-08T04:31:30;4.15;;;2.22;;
46751;SDS011;32497;48.936;9.270;2023-09-08T04:36:31;4.78;;;2.20;;
46751;SDS011;32497;48.936;9.270;2023-09-08T04:41:34;4.13;;;2.40;;
46751;SDS011;32497;48.936;9.270;2023-09-08T04:46:35;3.95;;;2.35;;
46751;SDS011;32497;48.936;9.270;2023-09-08T04:51:37;5.43;;;2.70;;
46751;SDS011;32497;48.936;9.270;2023-09-08T04:56:40;4.57;;;2.28;;
46751;SDS011;32497;48.936;9.270;2023-09-08T05:01:41;6.10;;;2.47;;
46751;SDS011;32497;48.936;9.270;2023-09-08T05:06:42;4.72;;;2.45;;
46751;SDS011;32497;48.936;9.270;2023-09-08T05:11:45;6.10;;;2.90;;
46751;SDS011;32497;48.936;9.270;2023-09-08T05:16:46;5.78;;;2.90;;
46751;SDS011;32497;48.936;9.270;2023-09-08T05:21:52;4.88;;;2.22;;
46751;SDS011;32497;48.936;9.270;2023-09-08T05:26:56;5.82;;;2.55;;
46751;SDS011;32497;48.936;9.270;2023-09-08T05:31:57;5.53;;;2.65;;
46751;SDS011;32497;48.936;9.270;2023-09-08T05:36:58;5.78;;;2.72;;
46751;SDS011;32497;48.936;9.270;2023-09-08T05:42:01;5.97;;;2.40;;
46751;SDS011;32497;48.936;9.270;2023-09-08T05:47:02;6.80;;;3.10;;
46751;SDS011;32497;48.936;9.270;2023-09-08T05:52:03;6.22;;;2.50;;
46751;SDS011;32497;48.936;9.270;2023-09-08T05:57:07;4.57;;;2.38;;
46751;SDS011;32497;48.936;9.270;2023-09-08T06:02:08;5.65;;;2.88;;
46751;SDS011;32497;48.936;9.270;2023-09-08T06:07:09;4.03;;;2.40;;
46751;SDS011;32497;48.936;9.270;2023-09-08T06:12:12;4.85;;;2.42;;
46751;SDS011;32497;48.936;9.270;2023-09-08T06:17:13;5.63;;;2.67;;
46751;SDS011;32497;48.936;9.270;2023-09-08T06:22:14;5.68;;;2.92;;
46751;SDS011;32497;48.936;9.270;2023-09-08T06:27:18;6.22;;;3.20;;
46751;SDS011;32497;48.936;9.270;2023-09-08T06:32:19;6.97;;;2.85;;
46751;SDS011;32497;48.936;9.270;2023-09-08T06:37:22;5.40;;;3.03;;
46751;SDS011;32497;48.936;9.270;2023-09-08T06:42:25;5.78;;;2.78;;
46751;SDS011;32497;48.936;9.270;2023-09-08T06:47:32;4.38;;;2.63;;
46751;SDS011;32497;48.936;9.270;2023-09-08T06:52:33;4.20;;;2.67;;
46751;SDS011;32497;48.936;9.270;2023-09-08T06:57:36;5.32;;;3.20;;
46751;SDS011;32497;48.936;9.270;2023-09-08T07:02:37;5.82;;;3.05;;
46751;SDS011;32497;48.936;9.270;2023-09-08T07:07:38;5.72;;;3.00;;
46751;SDS011;32497;48.936;9.270;2023-09-08T07:12:41;5.97;;;2.75;;
46751;SDS011;32497;48.936;9.270;2023-09-08T07:17:44;3.97;;;2.55;;
46751;SDS011;32497;48.936;9.270;2023-09-08T07:22:45;5.72;;;3.47;;
46751;SDS011;32497;48.936;9.270;2023-09-08T07:27:48;6.32;;;3.03;;
46751;SDS011;32497;48.936;9.270;2023-09-08T07:32:49;6.25;;;3.22;;
46751;SDS011;32497;48.936;9.270;2023-09-08T07:37:51;3.60;;;2.45;;
46751;SDS011;32497;48.936;9.270;2023-09-08T07:42:53;6.78;;;3.25;;
46751;SDS011;32497;48.936;9.270;2023-09-08T07:47:54;6.95;;;2.55;;
46751;SDS011;32497;48.936;9.270;2023-09-08T07:52:56;6.47;;;2.95;;
46751;SDS011;32497;48.936;9.270;2023-09-08T07:58:00;5.53;;;2.88;;
46751;SDS011;32497;48.936;9.270;2023-09-08T08:03:02;4.93;;;2.80;;
46751;SDS011;32497;48.936;9.270;2023-09-08T08:08:03;5.65;;;3.20;;
46751;SDS011;32497;48.936;9.270;2023-09-08T08:13:06;5.00;;;2.65;;
46751;SDS011;32497;48.936;9.270;2023-09-08T08:18:07;5.32;;;2.90;;
46751;SDS011;32497;48.936;9.270;2023-09-08T08:23:08;3.53;;;2.42;;
46751;SDS011;32497;48.936;9.270;2023-09-08T08:28:11;3.20;;;2.40;;
46751;SDS011;32497;48.936;9.270;2023-09-08T08:33:12;4.72;;;2.88;;
46751;SDS011;32497;48.936;9.270;2023-09-08T08:38:13;5.00;;;2.80;;
46751;SDS011;32497;48.936;9.270;2023-09-08T08:43:15;4.20;;;2.63;;
46751;SDS011;32497;48.936;9.270;2023-09-08T08:48:16;4.43;;;2.10;;
46751;SDS011;32497;48.936;9.270;2023-09-08T08:53:20;4.47;;;2.70;;
46751;SDS011;32497;48.936;9.270;2023-09-08T08:58:22;3.22;;;2.33;;
46751;SDS011;32497;48.936;9.270;2023-09-08T09:03:25;4.15;;;3.05;;
46751;SDS011;32497;48.936;9.270;2023-09-08T09:08:27;4.07;;;2.42;;
46751;SDS011;32497;48.936;9.270;2023-09-08T09:13:30;4.80;;;2.78;;
46751;SDS011;32497;48.936;9.270;2023-09-08T09:18:32;6.72;;;3.05;;
46751;SDS011;32497;48.936;9.270;2023-09-08T09:23:34;4.05;;;2.63;;
46751;SDS011;32497;48.936;9.270;2023-09-08T09:28:36;3.33;;;2.50;;
46751;SDS011;32497;48.936;9.270;2023-09-08T09:33:47;3.47;;;2.70;;
46751;SDS011;32497;48.936;9.270;2023-09-08T09:38:49;3.50;;;2.50;;
46751;SDS011;32497;48.936;9.270;2023-09-08T09:43:51;5.30;;;2.53;;
46751;SDS011;32497;48.936;9.270;2023-09-08T09:48:53;3.50;;;2.40;;
46751;SDS011;32497;48.936;9.270;2023-09-08T09:53:55;3.47;;;2.70;;
46751;SDS011;32497;48.936;9.270;2023-09-08T09:58:57;3.88;;;2.60;;
46751;SDS011;32497;48.936;9.270;2023-09-08T10:04:02;3.97;;;2.50;;
46751;SDS011;32497;48.936;9.270;2023-09-08T10:09:04;3.22;;;2.25;;
46751;SDS011;32497;48.936;9.270;2023-09-08T10:14:07;4.85;;;2.60;;
46751;SDS011;32497;48.936;9.270;2023-09-08T10:19:09;3.45;;;2.67;;
46751;SDS011;32497;48.936;9.270;2023-09-08T10:24:14;4.90;;;2.80;;
46751;SDS011;32497;48.936;9.270;2023-09-08T10:29:18;2.65;;;2.20;;
46751;SDS011;32497;48.936;9.270;2023-09-08T10:34:20;2.58;;;2.25;;
46751;SDS011;32497;48.936;9.270;2023-09-08T10:39:29;4.65;;;2.88;;
46751;SDS011;32497;48.936;9.270;2023-09-08T10:44:32;3.45;;;2.50;;
46751;SDS011;32497;48.936;9.270;2023-09-08T10:49:34;3.60;;;2.83;;
46751;SDS011;32497;48.936;9.270;2023-09-08T10:54:42;4.85;;;2.83;;
46751;SDS011;32497;48.936;9.270;2023-09-08T10:59:46;3.60;;;2.38;;
46751;SDS011;32497;48.936;9.270;2023-09-08T11:04:52;4.47;;;2.63;;
46751;SDS011;32497;48.936;9.270;2023-09-08T11:09:54;3.38;;;2.67;;
46751;SDS011;32497;48.936;9.270;2023-09-08T11:14:57;3.30;;;2.88;;
46751;SDS011;32497;48.936;9.270;2023-09-08T11:19:58;4.68;;;2.88;;
46751;SDS011;32497;48.936;9.270;2023-09-08T11:25:00;3.10;;;2.50;;
46751;SDS011;32497;48.936;9.270;2023-09-08T11:30:03;2.95;;;2.63;;
46751;SDS011;32497;48.936;9.270;2023-09-08T11:35:07;3.70;;;2.63;;
46751;SDS011;32497;48.936;9.270;2023-09-08T11:40:09;3.45;;;2.53;;
46751;SDS011;32497;48.936;9.270;2023-09-08T11:45:13;2.92;;;2.63;;
46751;SDS011;32497;48.936;9.270;2023-09-08T11:50:15;3.20;;;2.60;;
46751;SDS011;32497;48.936;9.270;2023-09-08T11:55:18;3.13;;;2.50;;
46751;SDS011;32497;48.936;9.270;2023-09-08T12:00:22;3.28;;;2.70;;
46751;SDS011;32497;48.936;9.270;2023-09-08T12:05:25;3.38;;;2.95;;
46751;SDS011;32497;48.936;9.270;2023-09-08T12:10:27;3.70;;;2.75;;
46751;SDS011;32497;48.936;9.270;2023-09-08T12:15:33;3.45;;;2.88;;
46751;SDS011;32497;48.936;9.270;2023-09-08T12:20:35;3.05;;;2.38;;
46751;SDS011;32497;48.936;9.270;2023-09-08T12:25:43;3.20;;;2.80;;
46751;SDS011;32497;48.936;9.270;2023-09-08T12:30:46;3.63;;;2.92;;
46751;SDS011;32497;48.936;9.270;2023-09-08T12:35:49;3.55;;;3.00;;
46751;SDS011;32497;48.936;9.270;2023-09-08T12:40:50;2.92;;;2.70;;
46751;SDS011;32497;48.936;9.270;2023-09-08T12:45:52;3.30;;;3.00;;
46751;SDS011;32497;48.936;9.270;2023-09-08T12:50:53;3.67;;;3.03;;
46751;SDS011;32497;48.936;9.270;2023-09-08T12:55:55;3.28;;;2.90;;
46751;SDS011;32497;48.936;9.270;2023-09-08T13:00:57;3.15;;;2.85;;
46751;SDS011;32497;48.936;9.270;2023-09-08T13:05:58;3.28;;;2.97;;
46751;SDS011;32497;48.936;9.270;2023-09-08T13:10:59;3.38;;;2.97;;
46751;SDS011;32497;48.936;9.270;2023-09-08T13:16:02;3.30;;;3.00;;
46751;SDS011;32497;48.936;9.270;2023-09-08T13:21:03;3.25;;;2.95;;
46751;SDS011;32497;48.936;9.270;2023-09-08T13:26:04;3.40;;;3.10;;
46751;SDS011;32497;48.936;9.270;2023-09-08T13:31:06;2.85;;;2.65;;
46751;SDS011;32497;48.936;9.270;2023-09-08T13:36:07;3.03;;;2.75;;
46751;SDS011;32497;48.936;9.270;2023-09-08T13:41:08;3.22;;;2.92;;
46751;SDS011;32497;48.936;9.270;2023-09-08T13:46:11;3.33;;;3.03;;
46751;SDS011;32497;48.936;9.270;2023-09-08T13:51:12;3.15;;;2.85;;
46751;SDS011;32497;48.936;9.270;2023-09-08T13:56:13;3.00;;;2.70;;
46751;SDS011;32497;48.936;9.270;2023-09-08T14:01:15;3.13;;;2.88;;
46751;SDS011;32497;48.936;9.270;2023-09-08T14:06:17;3.42;;;3.13;;
46751;SDS011;32497;48.936;9.270;2023-09-08T14:11:18;3.42;;;3.10;;
46751;SDS011;32497;48.936;9.270;2023-09-08T14:16:21;3.65;;;3.35;;
46751;SDS011;32497;48.936;9.270;2023-09-08T14:21:22;5.82;;;3.05;;
46751;SDS011;32497;48.936;9.270;2023-09-08T14:26:23;3.40;;;3.10;;
46751;SDS011;32497;48.936;9.270;2023-09-08T14:31:25;3.33;;;2.90;;
46751;SDS011;32497;48.936;9.270;2023-09-08T14:36:26;3.50;;;3.20;;
46751;SDS011;32497;48.936;9.270;2023-09-08T14:41:27;3.72;;;3.38;;
46751;SDS011;32497;48.936;9.270;2023-09-08T14:46:30;3.65;;;3.30;;
46751;SDS011;32497;48.936;9.270;2023-09-08T14:51:31;3.25;;;3.00;;
46751;SDS011;32497;48.936;9.270;2023-09-08T14:56:32;3.38;;;3.05;;
46751;SDS011;32497;48.936;9.270;2023-09-08T15:01:34;3.00;;;2.70;;
46751;SDS011;32497;48.936;9.270;2023-09-08T15:06:35;2.92;;;2.70;;
46751;SDS011;32497;48.936;9.270;2023-09-08T15:11:37;3.30;;;3.00;;
46751;SDS011;32497;48.936;9.270;2023-09-08T15:16:39;4.22;;;3.45;;
46751;SDS011;32497;48.936;9.270;2023-09-08T15:21:40;4.28;;;3.10;;
46751;SDS011;32497;48.936;9.270;2023-09-08T15:26:41;3.45;;;2.95;;
46751;SDS011;32497;48.936;9.270;2023-09-08T15:31:44;4.32;;;3.08;;
46751;SDS011;32497;48.936;9.270;2023-09-08T15:36:45;3.65;;;2.97;;
46751;SDS011;32497;48.936;9.270;2023-09-08T15:41:46;3.25;;;2.95;;
46751;SDS011;32497;48.936;9.270;2023-09-08T15:46:48;4.03;;;2.42;;
46751;SDS011;32497;48.936;9.270;2023-09-08T15:51:49;2.95;;;2.70;;
46751;SDS011;32497;48.936;9.270;2023-09-08T15:56:50;2.83;;;2.40;;
46751;SDS011;32497;48.936;9.270;2023-09-08T16:01:53;2.97;;;2.67;;
46751;SDS011;32497;48.936;9.270;2023-09-08T16:06:54;3.10;;;2.80;;
46751;SDS011;32497;48.936;9.270;2023-09-08T16:11:55;3.92;;;3.17;;
46751;SDS011;32497;48.936;9.270;2023-09-08T16:16:57;2.92;;;2.63;;
46751;SDS011;32497;48.936;9.270;2023-09-08T16:21:58;3.50;;;2.65;;
46751;SDS011;32497;48.936;9.270;2023-09-08T16:26:59;3.15;;;2.70;;
46751;SDS011;32497;48.936;9.270;2023-09-08T16:32:02;4.32;;;2.50;;
46751;SDS011;32497;48.936;9.270;2023-09-08T16:37:04;3.25;;;2.70;;
46751;SDS011;32497;48.936;9.270;2023-09-08T16:42:05;3.40;;;2.90;;
46751;SDS011;32497;48.936;9.270;2023-09-08T16:47:07;3.38;;;2.83;;
46751;SDS011;32497;48.936;9.270;2023-09-08T16:52:08;3.80;;;2.70;;
46751;SDS011;32497;48.936;9.270;2023-09-08T16:57:09;3.22;;;2.65;;
46751;SDS011;32497;48.936;9.270;2023-09-08T17:02:12;3.47;;;3.00;;
46751;SDS011;32497;48.936;9.270;2023-09-08T17:07:13;3.97;;;2.92;;
46751;SDS011;32497;48.936;9.270;2023-09-08T17:12:14;4.03;;;2.55;;
46751;SDS011;32497;48.936;9.270;2023-09-08T17:17:16;4.28;;;3.05;;
46751;SDS011;32497;48.936;9.270;2023-09-08T17:22:18;4.05;;;2.97;;
46751;SDS011;32497;48.936;9.270;2023-09-08T17:27:19;4.43;;;2.72;;
46751;SDS011;32497;48.936;9.270;2023-09-08T17:32:21;3.53;;;2.70;;
46751;SDS011;32497;48.936;9.270;2023-09-08T17:37:22;4.75;;;2.72;;
46751;SDS011;32497;48.936;9.270;2023-09-08T17:42:23;6.72;;;2.70;;
46751;SDS011;32497;48.936;9.270;2023-09-08T17:47:26;4.90;;;3.20;;
46751;SDS011;32497;48.936;9.270;2023-09-08T17:52:27;3.80;;;2.72;;
46751;SDS011;32497;48.936;9.270;2023-09-08T17:57:28;2.97;;;2.65;;
46751;SDS011;32497;48.936;9.270;2023-09-08T18:02:31;3.63;;;2.63;;
46751;SDS011;32497;48.936;9.270;2023-09-08T18:07:32;4.40;;;2.78;;
46751;SDS011;32497;48.936;9.270;2023-09-08T18:12:33;4.45;;;2.80;;
46751;SDS011;32497;48.936;9.270;2023-09-08T18:17:36;3.60;;;2.75;;
46751;SDS011;32497;48.936;9.270;2023-09-08T18:22:37;4.03;;;3.00;;
46751;SDS011;32497;48.936;9.270;2023-09-08T18:27:38;4.43;;;3.17;;
46751;SDS011;32497;48.936;9.270;2023-09-08T18:32:40;6.25;;;3.65;;
46751;SDS011;32497;48.936;9.270;2023-09-08T18:37:42;4.00;;;3.28;;
46751;SDS011;32497;48.936;9.270;2023-09-08T18:42:43;4.53;;;3.20;;
46751;SDS011;32497;48.936;9.270;2023-09-08T18:47:45;4.05;;;3.13;;
46751;SDS011;32497;48.936;9.270;2023-09-08T18:52:46;5.75;;;3.03;;
46751;SDS011;32497;48.936;9.270;2023-09-08T18:57:47;5.90;;;3.88;;
46751;SDS011;32497;48.936;9.270;2023-09-08T19:02:50;5.20;;;3.03;;
46751;SDS011;32497;48.936;9.270;2023-09-08T19:07:51;5.97;;;3.58;;
46751;SDS011;32497;48.936;9.270;2023-09-08T19:12:52;5.07;;;3.28;;
46751;SDS011;32497;48.936;9.270;2023-09-08T19:17:54;5.07;;;3.30;;
46751;SDS011;32497;48.936;9.270;2023-09-08T19:22:55;6.50;;;3.28;;
46751;SDS011;32497;48.936;9.270;2023-09-08T19:27:57;7.57;;;3.55;;
46751;SDS011;32497;48.936;9.270;2023-09-08T19:32:59;5.82;;;3.33;;
46751;SDS011;32497;48.936;9.270;2023-09-08T19:38:00;4.63;;;3.00;;
46751;SDS011;32497;48.936;9.270;2023-09-08T19:43:01;6.22;;;3.60;;
46751;SDS011;32497;48.936;9.270;2023-09-08T19:48:04;4.60;;;3.30;;
46751;SDS011;32497;48.936;9.270;2023-09-08T19:53:06;5.05;;;3.35;;
46751;SDS011;32497;48.936;9.270;2023-09-08T19:58:07;9.48;;;3.83;;
46751;SDS011;32497;48.936;9.270;2023-09-08T20:03:10;4.70;;;3.42;;
46751;SDS011;32497;48.936;9.270;2023-09-08T20:08:11;9.05;;;4.32;;
46751;SDS011;32497;48.936;9.270;2023-09-08T20:13:12;7.03;;;4.15;;
46751;SDS011;32497;48.936;9.270;2023-09-08T20:18:14;6.53;;;3.78;;
46751;SDS011;32497;48.936;9.270;2023-09-08T20:23:15;4.88;;;3.60;;
46751;SDS011;32497;48.936;9.270;2023-09-08T20:28:16;5.55;;;3.70;;
46751;SDS011;32497;48.936;9.270;2023-09-08T20:33:19;7.82;;;3.65;;
46751;SDS011;32497;48.936;9.270;2023-09-08T20:38:20;6.03;;;3.85;;
46751;SDS011;32497;48.936;9.270;2023-09-08T20:43:22;4.43;;;3.25;;
46751;SDS011;32497;48.936;9.270;2023-09-08T20:48:24;5.85;;;3.60;;
46751;SDS011;32497;48.936;9.270;2023-09-08T20:53:25;5.57;;;3.60;;
46751;SDS011;32497;48.936;9.270;2023-09-08T20:58:27;5.95;;;3.88;;
46751;SDS011;32497;48.936;9.270;2023-09-08T21:03:29;7.00;;;4.03;;
46751;SDS011;32497;48.936;9.270;2023-09-08T21:08:31;6.28;;;3.58;;
46751;SDS011;32497;48.936;9.270;2023-09-08T21:13:32;5.20;;;3.55;;
46751;SDS011;32497;48.936;9.270;2023-09-08T21:18:35;6.07;;;3.83;;
46751;SDS011;32497;48.936;9.270;2023-09-08T21:23:36;9.90;;;3.90;;
46751;SDS011;32497;48.936;9.270;2023-09-08T21:28:37;4.78;;;3.40;;
46751;SDS011;32497;48.936;9.270;2023-09-08T21:33:39;5.68;;;3.75;;
46751;SDS011;32497;48.936;9.270;2023-09-08T21:38:41;6.03;;;3.63;;
46751;SDS011;32497;48.936;9.270;2023-09-08T21:43:42;7.97;;;4.03;;
46751;SDS011;32497;48.936;9.270;2023-09-08T21:48:44;6.22;;;3.92;;
46751;SDS011;32497;48.936;9.270;2023-09-08T21:53:45;6.95;;;3.90;;
46751;SDS011;32497;48.936;9.270;2023-09-08T21:58:47;5.95;;;3.70;;
46751;SDS011;32497;48.936;9.270;2023-09-08T22:03:49;7.10;;;3.88;;
46751;SDS011;32497;48.936;9.270;2023-09-08T22:08:50;5.20;;;3.30;;
46751;SDS011;32497;48.936;9.270;2023-09-08T22:13:51;4.95;;;3.42;;
46751;SDS011;32497;48.936;9.270;2023-09-08T22:18:54;6.88;;;4.00;;
46751;SDS011;32497;48.936;9.270;2023-09-08T22:23:55;7.20;;;4.10;;
46751;SDS011;32497;48.936;9.270;2023-09-08T22:28:56;7.50;;;4.70;;
46751;SDS011;32497;48.936;9.270;2023-09-08T22:33:59;6.55;;;4.20;;
46751;SDS011;32497;48.936;9.270;2023-09-08T22:39:02;10.15;;;5.50;;
46751;SDS011;32497;48.936;9.270;2023-09-08T22:44:03;19.08;;;10.77;;
46751;SDS011;32497;48.936;9.270;2023-09-08T22:49:06;52.17;;;23.85;;
46751;SDS011;32497;48.936;9.270;2023-09-08T22:54:07;20.15;;;9.80;;
46751;SDS011;32497;48.936;9.270;2023-09-08T22:59:08;8.65;;;5.30;;
46751;SDS011;32497;48.936;9.270;2023-09-08T23:04:11;7.25;;;5.18;;
46751;SDS011;32497;48.936;9.270;2023-09-08T23:09:12;7.32;;;4.47;;
46751;SDS011;32497;48.936;9.270;2023-09-08T23:14:13;7.32;;;4.38;;
46751;SDS011;32497;48.936;9.270;2023-09-08T23:19:15;8.02;;;4.05;;
46751;SDS011;32497;48.936;9.270;2023-09-08T23:24:17;7.43;;;3.97;;
46751;SDS011;32497;48.936;9.270;2023-09-08T23:29:18;8.35;;;4.22;;
46751;SDS011;32497;48.936;9.270;2023-09-08T23:34:20;5.38;;;3.60;;
46751;SDS011;32497;48.936;9.270;2023-09-08T23:39:21;5.53;;;3.70;;
46751;SDS011;32497;48.936;9.270;2023-09-08T23:44:22;6.43;;;4.40;;
46751;SDS011;32497;48.936;9.270;2023-09-08T23:49:25;9.05;;;4.18;;
46751;SDS011;32497;48.936;9.270;2023-09-08T23:54:26;7.07;;;4.18;;
46751;SDS011;32497;48.936;9.270;2023-09-08T23:59:27;7.35;;;4.10;;
